sensor_id;sensor_type;location;lat;lon;timestamp;P1;durP1;ratioP1;P2;durP2;ratioP2
11651;SDS011;5882;48.818;9.114;2023-12-20T00:00:25;0.90;;;0.90;;
11651;SDS011;5882;48.818;9.114;2023-12-20T00:03:10;1.30;;;1.20;;
11651;SDS011;5882;48.818;9.114;2023-12-20T00:05:55;1.00;;;1.00;;
11651;SDS011;5882;48.818;9.114;2023-12-20T00:08:41;1.17;;;1.08;;
11651;SDS011;5882;48.818;9.114;2023-12-20T00:11:28;1.15;;;1.10;;
11651;SDS011;5882;48.818;9.114;2023-12-20T00:14:13;1.35;;;1.25;;
11651;SDS011;5882;48.818;9.114;2023-12-20T00:17:00;3.10;;;2.80;;
11651;SDS011;5882;48.818;9.114;2023-12-20T00:19:45;4.55;;;2.78;;
11651;SDS011;5882;48.818;9.114;2023-12-20T00:22:30;2.22;;;1.55;;
11651;SDS011;5882;48.818;9.114;2023-12-20T00:25:16;1.00;;;1.00;;
11651;SDS011;5882;48.818;9.114;2023-12-20T00:28:01;1.05;;;0.93;;
11651;SDS011;5882;48.818;9.114;2023-12-20T00:30:46;1.42;;;1.23;;
11651;SDS011;5882;48.818;9.114;2023-12-20T00:33:33;0.95;;;0.95;;
11651;SDS011;5882;48.818;9.114;2023-12-20T00:36:19;1.60;;;0.90;;
11651;SDS011;5882;48.818;9.114;2023-12-20T00:39:04;1.23;;;1.10;;
11651;SDS011;5882;48.818;9.114;2023-12-20T00:41:50;1.08;;;1.00;;
11651;SDS011;5882;48.818;9.114;2023-12-20T00:44:35;1.10;;;1.00;;
11651;SDS011;5882;48.818;9.114;2023-12-20T00:47:21;1.33;;;1.23;;
11651;SDS011;5882;48.818;9.114;2023-12-20T00:50:11;1.00;;;1.00;;
11651;SDS011;5882;48.818;9.114;2023-12-20T00:52:56;1.13;;;1.13;;
11651;SDS011;5882;48.818;9.114;2023-12-20T00:55:41;1.00;;;1.00;;
11651;SDS011;5882;48.818;9.114;2023-12-20T00:58:28;2.15;;;1.67;;
11651;SDS011;5882;48.818;9.114;2023-12-20T01:01:13;1.23;;;1.17;;
11651;SDS011;5882;48.818;9.114;2023-12-20T01:03:59;1.00;;;1.00;;
11651;SDS011;5882;48.818;9.114;2023-12-20T01:06:46;0.90;;;0.90;;
11651;SDS011;5882;48.818;9.114;2023-12-20T01:09:31;0.85;;;0.85;;
11651;SDS011;5882;48.818;9.114;2023-12-20T01:12:16;1.00;;;1.00;;
11651;SDS011;5882;48.818;9.114;2023-12-20T01:15:02;1.15;;;1.02;;
11651;SDS011;5882;48.818;9.114;2023-12-20T01:17:47;2.05;;;1.00;;
11651;SDS011;5882;48.818;9.114;2023-12-20T01:20:33;1.05;;;0.98;;
11651;SDS011;5882;48.818;9.114;2023-12-20T01:23:19;0.90;;;0.90;;
11651;SDS011;5882;48.818;9.114;2023-12-20T01:26:05;1.10;;;1.00;;
11651;SDS011;5882;48.818;9.114;2023-12-20T01:28:50;1.17;;;1.10;;
11651;SDS011;5882;48.818;9.114;2023-12-20T01:31:35;0.90;;;0.90;;
11651;SDS011;5882;48.818;9.114;2023-12-20T01:34:20;1.02;;;1.02;;
11651;SDS011;5882;48.818;9.114;2023-12-20T01:37:08;1.00;;;1.00;;
11651;SDS011;5882;48.818;9.114;2023-12-20T01:39:55;0.85;;;0.85;;
11651;SDS011;5882;48.818;9.114;2023-12-20T01:42:40;0.90;;;0.90;;
11651;SDS011;5882;48.818;9.114;2023-12-20T01:45:26;0.90;;;0.90;;
11651;SDS011;5882;48.818;9.114;2023-12-20T01:48:12;1.10;;;1.10;;
11651;SDS011;5882;48.818;9.114;2023-12-20T01:50:57;1.00;;;1.00;;
11651;SDS011;5882;48.818;9.114;2023-12-20T01:53:43;1.50;;;1.05;;
11651;SDS011;5882;48.818;9.114;2023-12-20T01:56:30;1.10;;;1.10;;
11651;SDS011;5882;48.818;9.114;2023-12-20T01:59:15;1.27;;;1.20;;
11651;SDS011;5882;48.818;9.114;2023-12-20T02:02:02;1.33;;;1.23;;
11651;SDS011;5882;48.818;9.114;2023-12-20T02:04:48;1.05;;;1.05;;
11651;SDS011;5882;48.818;9.114;2023-12-20T02:07:34;2.35;;;1.13;;
11651;SDS011;5882;48.818;9.114;2023-12-20T02:10:20;1.55;;;1.23;;
11651;SDS011;5882;48.818;9.114;2023-12-20T02:13:07;0.90;;;0.90;;
11651;SDS011;5882;48.818;9.114;2023-12-20T02:15:52;1.30;;;1.20;;
11651;SDS011;5882;48.818;9.114;2023-12-20T02:18:37;1.20;;;1.10;;
11651;SDS011;5882;48.818;9.114;2023-12-20T02:21:25;1.30;;;1.20;;
11651;SDS011;5882;48.818;9.114;2023-12-20T02:24:16;1.13;;;1.13;;
11651;SDS011;5882;48.818;9.114;2023-12-20T02:27:02;1.40;;;1.30;;
11651;SDS011;5882;48.818;9.114;2023-12-20T02:29:47;1.45;;;1.35;;
11651;SDS011;5882;48.818;9.114;2023-12-20T02:32:33;1.40;;;1.30;;
11651;SDS011;5882;48.818;9.114;2023-12-20T02:35:18;1.30;;;1.20;;
11651;SDS011;5882;48.818;9.114;2023-12-20T02:38:04;1.30;;;1.20;;
11651;SDS011;5882;48.818;9.114;2023-12-20T02:40:50;1.33;;;1.13;;
11651;SDS011;5882;48.818;9.114;2023-12-20T02:43:35;1.00;;;1.00;;
11651;SDS011;5882;48.818;9.114;2023-12-20T02:46:20;0.80;;;0.80;;
11651;SDS011;5882;48.818;9.114;2023-12-20T02:49:05;0.98;;;0.98;;
11651;SDS011;5882;48.818;9.114;2023-12-20T02:51:50;0.70;;;0.70;;
11651;SDS011;5882;48.818;9.114;2023-12-20T02:54:37;0.60;;;0.60;;
11651;SDS011;5882;48.818;9.114;2023-12-20T02:57:22;0.70;;;0.70;;
11651;SDS011;5882;48.818;9.114;2023-12-20T03:00:08;0.70;;;0.70;;
11651;SDS011;5882;48.818;9.114;2023-12-20T03:02:54;0.73;;;0.70;;
11651;SDS011;5882;48.818;9.114;2023-12-20T03:05:39;2.25;;;0.80;;
11651;SDS011;5882;48.818;9.114;2023-12-20T03:08:24;0.60;;;0.60;;
11651;SDS011;5882;48.818;9.114;2023-12-20T03:11:14;0.70;;;0.70;;
11651;SDS011;5882;48.818;9.114;2023-12-20T03:13:59;0.70;;;0.70;;
11651;SDS011;5882;48.818;9.114;2023-12-20T03:16:46;0.60;;;0.60;;
11651;SDS011;5882;48.818;9.114;2023-12-20T03:19:31;0.70;;;0.70;;
11651;SDS011;5882;48.818;9.114;2023-12-20T03:22:17;0.70;;;0.70;;
11651;SDS011;5882;48.818;9.114;2023-12-20T03:25:02;0.68;;;0.68;;
11651;SDS011;5882;48.818;9.114;2023-12-20T03:27:49;0.70;;;0.70;;
11651;SDS011;5882;48.818;9.114;2023-12-20T03:30:34;0.85;;;0.70;;
11651;SDS011;5882;48.818;9.114;2023-12-20T03:33:19;0.63;;;0.63;;
11651;SDS011;5882;48.818;9.114;2023-12-20T03:36:05;0.70;;;0.70;;
11651;SDS011;5882;48.818;9.114;2023-12-20T03:38:50;0.70;;;0.70;;
11651;SDS011;5882;48.818;9.114;2023-12-20T03:41:36;0.70;;;0.70;;
11651;SDS011;5882;48.818;9.114;2023-12-20T03:44:22;0.70;;;0.70;;
11651;SDS011;5882;48.818;9.114;2023-12-20T03:47:07;0.60;;;0.60;;
11651;SDS011;5882;48.818;9.114;2023-12-20T03:49:53;0.68;;;0.68;;
11651;SDS011;5882;48.818;9.114;2023-12-20T03:52:38;0.60;;;0.60;;
11651;SDS011;5882;48.818;9.114;2023-12-20T03:55:25;0.60;;;0.60;;
11651;SDS011;5882;48.818;9.114;2023-12-20T03:58:11;0.70;;;0.70;;
11651;SDS011;5882;48.818;9.114;2023-12-20T04:00:57;0.75;;;0.75;;
11651;SDS011;5882;48.818;9.114;2023-12-20T04:03:42;0.70;;;0.70;;
11651;SDS011;5882;48.818;9.114;2023-12-20T04:06:28;0.63;;;0.63;;
11651;SDS011;5882;48.818;9.114;2023-12-20T04:09:13;0.70;;;0.70;;
11651;SDS011;5882;48.818;9.114;2023-12-20T04:11:58;0.70;;;0.70;;
11651;SDS011;5882;48.818;9.114;2023-12-20T04:14:43;0.70;;;0.70;;
11651;SDS011;5882;48.818;9.114;2023-12-20T04:17:30;0.70;;;0.70;;
11651;SDS011;5882;48.818;9.114;2023-12-20T04:20:15;0.60;;;0.60;;
11651;SDS011;5882;48.818;9.114;2023-12-20T04:23:01;0.68;;;0.68;;
11651;SDS011;5882;48.818;9.114;2023-12-20T04:25:46;0.60;;;0.60;;
11651;SDS011;5882;48.818;9.114;2023-12-20T04:28:31;0.70;;;0.70;;
11651;SDS011;5882;48.818;9.114;2023-12-20T04:31:17;0.60;;;0.60;;
11651;SDS011;5882;48.818;9.114;2023-12-20T04:34:03;0.70;;;0.70;;
11651;SDS011;5882;48.818;9.114;2023-12-20T04:36:49;0.68;;;0.68;;
11651;SDS011;5882;48.818;9.114;2023-12-20T04:39:34;0.70;;;0.70;;
11651;SDS011;5882;48.818;9.114;2023-12-20T04:42:19;0.70;;;0.70;;
11651;SDS011;5882;48.818;9.114;2023-12-20T04:45:05;0.70;;;0.70;;
11651;SDS011;5882;48.818;9.114;2023-12-20T04:47:50;0.70;;;0.70;;
11651;SDS011;5882;48.818;9.114;2023-12-20T04:50:37;0.80;;;0.80;;
11651;SDS011;5882;48.818;9.114;2023-12-20T04:53:22;0.75;;;0.75;;
11651;SDS011;5882;48.818;9.114;2023-12-20T04:56:07;0.70;;;0.70;;
11651;SDS011;5882;48.818;9.114;2023-12-20T04:58:53;0.70;;;0.70;;
11651;SDS011;5882;48.818;9.114;2023-12-20T05:01:38;0.60;;;0.60;;
11651;SDS011;5882;48.818;9.114;2023-12-20T05:04:23;0.68;;;0.68;;
11651;SDS011;5882;48.818;9.114;2023-12-20T05:07:10;0.80;;;0.80;;
11651;SDS011;5882;48.818;9.114;2023-12-20T05:09:55;0.80;;;0.80;;
11651;SDS011;5882;48.818;9.114;2023-12-20T05:12:41;0.80;;;0.80;;
11651;SDS011;5882;48.818;9.114;2023-12-20T05:15:26;0.70;;;0.70;;
11651;SDS011;5882;48.818;9.114;2023-12-20T05:18:11;0.70;;;0.70;;
11651;SDS011;5882;48.818;9.114;2023-12-20T05:20:57;0.80;;;0.80;;
11651;SDS011;5882;48.818;9.114;2023-12-20T05:23:44;0.90;;;0.90;;
11651;SDS011;5882;48.818;9.114;2023-12-20T05:26:29;0.82;;;0.82;;
11651;SDS011;5882;48.818;9.114;2023-12-20T05:29:14;0.70;;;0.70;;
11651;SDS011;5882;48.818;9.114;2023-12-20T05:32:00;0.70;;;0.70;;
11651;SDS011;5882;48.818;9.114;2023-12-20T05:34:45;0.80;;;0.80;;
11651;SDS011;5882;48.818;9.114;2023-12-20T05:37:31;0.73;;;0.73;;
11651;SDS011;5882;48.818;9.114;2023-12-20T05:40:17;0.75;;;0.75;;
11651;SDS011;5882;48.818;9.114;2023-12-20T05:43:03;0.70;;;0.70;;
11651;SDS011;5882;48.818;9.114;2023-12-20T05:45:48;1.00;;;1.00;;
11651;SDS011;5882;48.818;9.114;2023-12-20T05:48:33;3.72;;;0.82;;
11651;SDS011;5882;48.818;9.114;2023-12-20T05:51:20;0.80;;;0.80;;
11651;SDS011;5882;48.818;9.114;2023-12-20T05:54:05;0.70;;;0.70;;
11651;SDS011;5882;48.818;9.114;2023-12-20T05:56:52;0.80;;;0.80;;
11651;SDS011;5882;48.818;9.114;2023-12-20T05:59:40;0.70;;;0.70;;
11651;SDS011;5882;48.818;9.114;2023-12-20T06:02:26;0.70;;;0.70;;
11651;SDS011;5882;48.818;9.114;2023-12-20T06:05:12;0.85;;;0.85;;
11651;SDS011;5882;48.818;9.114;2023-12-20T06:07:57;0.70;;;0.70;;
11651;SDS011;5882;48.818;9.114;2023-12-20T06:10:45;0.90;;;0.90;;
11651;SDS011;5882;48.818;9.114;2023-12-20T06:13:31;1.20;;;1.13;;
11651;SDS011;5882;48.818;9.114;2023-12-20T06:16:16;0.80;;;0.80;;
11651;SDS011;5882;48.818;9.114;2023-12-20T06:19:02;1.40;;;1.00;;
11651;SDS011;5882;48.818;9.114;2023-12-20T06:21:47;0.80;;;0.80;;
11651;SDS011;5882;48.818;9.114;2023-12-20T06:24:32;0.75;;;0.75;;
11651;SDS011;5882;48.818;9.114;2023-12-20T06:27:18;0.70;;;0.70;;
11651;SDS011;5882;48.818;9.114;2023-12-20T06:30:05;0.85;;;0.85;;
11651;SDS011;5882;48.818;9.114;2023-12-20T06:32:53;0.95;;;0.85;;
11651;SDS011;5882;48.818;9.114;2023-12-20T06:35:38;0.70;;;0.70;;
11651;SDS011;5882;48.818;9.114;2023-12-20T06:38:24;1.00;;;1.00;;
11651;SDS011;5882;48.818;9.114;2023-12-20T06:41:12;0.80;;;0.80;;
11651;SDS011;5882;48.818;9.114;2023-12-20T06:43:57;0.80;;;0.80;;
11651;SDS011;5882;48.818;9.114;2023-12-20T06:46:44;2.72;;;1.10;;
11651;SDS011;5882;48.818;9.114;2023-12-20T06:49:29;0.80;;;0.80;;
11651;SDS011;5882;48.818;9.114;2023-12-20T06:52:14;0.82;;;0.82;;
11651;SDS011;5882;48.818;9.114;2023-12-20T06:55:02;0.90;;;0.90;;
11651;SDS011;5882;48.818;9.114;2023-12-20T06:57:50;0.88;;;0.88;;
11651;SDS011;5882;48.818;9.114;2023-12-20T07:00:38;0.90;;;0.90;;
11651;SDS011;5882;48.818;9.114;2023-12-20T07:06:55;1.40;;;1.30;;
11651;SDS011;5882;48.818;9.114;2023-12-20T07:09:41;1.17;;;1.10;;
11651;SDS011;5882;48.818;9.114;2023-12-20T07:12:48;1.10;;;1.10;;
11651;SDS011;5882;48.818;9.114;2023-12-20T07:15:45;1.30;;;1.20;;
11651;SDS011;5882;48.818;9.114;2023-12-20T07:18:39;1.23;;;1.13;;
11651;SDS011;5882;48.818;9.114;2023-12-20T07:21:31;1.40;;;1.30;;
11651;SDS011;5882;48.818;9.114;2023-12-20T07:31:09;1.35;;;1.25;;
11651;SDS011;5882;48.818;9.114;2023-12-20T07:34:04;1.60;;;1.50;;
11651;SDS011;5882;48.818;9.114;2023-12-20T07:36:57;1.45;;;1.35;;
11651;SDS011;5882;48.818;9.114;2023-12-20T11:07:44;1.40;;;1.00;;
11651;SDS011;5882;48.818;9.114;2023-12-20T11:10:37;1.00;;;1.00;;
11651;SDS011;5882;48.818;9.114;2023-12-20T11:13:26;5.93;;;1.00;;
11651;SDS011;5882;48.818;9.114;2023-12-20T11:16:15;1.77;;;1.00;;
11651;SDS011;5882;48.818;9.114;2023-12-20T11:19:04;1.20;;;1.10;;
11651;SDS011;5882;48.818;9.114;2023-12-20T11:22:15;1.48;;;1.00;;
11651;SDS011;5882;48.818;9.114;2023-12-20T11:25:05;1.00;;;1.00;;
11651;SDS011;5882;48.818;9.114;2023-12-20T11:28:09;1.20;;;1.10;;
11651;SDS011;5882;48.818;9.114;2023-12-20T11:30:58;3.75;;;1.20;;
11651;SDS011;5882;48.818;9.114;2023-12-20T11:33:45;1.38;;;1.00;;
11651;SDS011;5882;48.818;9.114;2023-12-20T11:36:32;2.88;;;1.25;;
11651;SDS011;5882;48.818;9.114;2023-12-20T11:39:21;1.90;;;1.08;;
11651;SDS011;5882;48.818;9.114;2023-12-20T11:55:06;1.17;;;1.10;;
11651;SDS011;5882;48.818;9.114;2023-12-20T11:57:51;1.92;;;1.02;;
11651;SDS011;5882;48.818;9.114;2023-12-20T12:00:36;0.98;;;0.80;;
11651;SDS011;5882;48.818;9.114;2023-12-20T12:03:22;2.58;;;0.90;;
11651;SDS011;5882;48.818;9.114;2023-12-20T12:06:10;1.30;;;1.20;;
11651;SDS011;5882;48.818;9.114;2023-12-20T12:08:55;1.45;;;1.35;;
11651;SDS011;5882;48.818;9.114;2023-12-20T12:11:42;2.90;;;1.10;;
11651;SDS011;5882;48.818;9.114;2023-12-20T12:14:27;1.65;;;1.27;;
11651;SDS011;5882;48.818;9.114;2023-12-20T12:17:13;1.42;;;1.30;;
11651;SDS011;5882;48.818;9.114;2023-12-20T12:20:02;1.42;;;1.10;;
11651;SDS011;5882;48.818;9.114;2023-12-20T12:22:58;2.10;;;1.40;;
11651;SDS011;5882;48.818;9.114;2023-12-20T12:25:44;1.95;;;1.27;;
11651;SDS011;5882;48.818;9.114;2023-12-20T12:28:31;1.70;;;1.50;;
11651;SDS011;5882;48.818;9.114;2023-12-20T12:31:16;0.88;;;0.88;;
11651;SDS011;5882;48.818;9.114;2023-12-20T12:34:04;0.95;;;0.93;;
11651;SDS011;5882;48.818;9.114;2023-12-20T12:36:50;1.08;;;1.08;;
11651;SDS011;5882;48.818;9.114;2023-12-20T12:39:35;1.10;;;1.00;;
11651;SDS011;5882;48.818;9.114;2023-12-20T12:42:20;2.13;;;1.30;;
11651;SDS011;5882;48.818;9.114;2023-12-20T12:45:13;1.23;;;1.10;;
11651;SDS011;5882;48.818;9.114;2023-12-20T12:47:59;2.63;;;1.00;;
11651;SDS011;5882;48.818;9.114;2023-12-20T12:50:47;1.83;;;1.20;;
11651;SDS011;5882;48.818;9.114;2023-12-20T12:53:35;2.17;;;1.30;;
11651;SDS011;5882;48.818;9.114;2023-12-20T12:56:21;0.80;;;0.80;;
11651;SDS011;5882;48.818;9.114;2023-12-20T12:59:07;0.90;;;0.90;;
11651;SDS011;5882;48.818;9.114;2023-12-20T13:01:56;1.17;;;1.10;;
11651;SDS011;5882;48.818;9.114;2023-12-20T13:04:47;2.90;;;0.90;;
11651;SDS011;5882;48.818;9.114;2023-12-20T13:12:57;1.13;;;1.00;;
11651;SDS011;5882;48.818;9.114;2023-12-20T13:18:58;1.08;;;1.00;;
11651;SDS011;5882;48.818;9.114;2023-12-20T13:21:43;1.42;;;1.20;;
11651;SDS011;5882;48.818;9.114;2023-12-20T13:24:29;2.50;;;1.05;;
11651;SDS011;5882;48.818;9.114;2023-12-20T13:27:16;1.60;;;1.05;;
11651;SDS011;5882;48.818;9.114;2023-12-20T13:30:05;1.38;;;0.90;;
11651;SDS011;5882;48.818;9.114;2023-12-20T13:32:51;1.05;;;1.05;;
11651;SDS011;5882;48.818;9.114;2023-12-20T13:35:37;2.65;;;0.80;;
11651;SDS011;5882;48.818;9.114;2023-12-20T13:38:23;0.93;;;0.93;;
11651;SDS011;5882;48.818;9.114;2023-12-20T13:41:10;1.27;;;1.00;;
11651;SDS011;5882;48.818;9.114;2023-12-20T13:43:56;2.42;;;1.00;;
11651;SDS011;5882;48.818;9.114;2023-12-20T13:46:41;0.80;;;0.80;;
11651;SDS011;5882;48.818;9.114;2023-12-20T13:49:27;2.80;;;1.00;;
11651;SDS011;5882;48.818;9.114;2023-12-20T13:52:16;1.35;;;1.00;;
11651;SDS011;5882;48.818;9.114;2023-12-20T13:55:01;0.93;;;0.93;;
11651;SDS011;5882;48.818;9.114;2023-12-20T13:57:46;0.90;;;0.90;;
11651;SDS011;5882;48.818;9.114;2023-12-20T14:00:31;1.70;;;1.10;;
11651;SDS011;5882;48.818;9.114;2023-12-20T14:03:17;1.10;;;1.00;;
11651;SDS011;5882;48.818;9.114;2023-12-20T14:06:05;0.90;;;0.90;;
11651;SDS011;5882;48.818;9.114;2023-12-20T14:08:52;0.90;;;0.90;;
11651;SDS011;5882;48.818;9.114;2023-12-20T14:11:37;0.90;;;0.90;;
11651;SDS011;5882;48.818;9.114;2023-12-20T14:14:25;1.77;;;1.02;;
11651;SDS011;5882;48.818;9.114;2023-12-20T14:17:10;0.88;;;0.88;;
11651;SDS011;5882;48.818;9.114;2023-12-20T14:19:55;1.45;;;0.98;;
11651;SDS011;5882;48.818;9.114;2023-12-20T14:22:40;0.90;;;0.90;;
11651;SDS011;5882;48.818;9.114;2023-12-20T14:25:33;1.00;;;1.00;;
11651;SDS011;5882;48.818;9.114;2023-12-20T14:28:20;1.00;;;0.88;;
11651;SDS011;5882;48.818;9.114;2023-12-20T14:31:05;1.40;;;0.98;;
11651;SDS011;5882;48.818;9.114;2023-12-20T14:33:52;1.52;;;1.00;;
11651;SDS011;5882;48.818;9.114;2023-12-20T14:36:38;1.23;;;1.08;;
11651;SDS011;5882;48.818;9.114;2023-12-20T14:39:24;1.70;;;1.17;;
11651;SDS011;5882;48.818;9.114;2023-12-20T14:42:11;1.13;;;1.00;;
11651;SDS011;5882;48.818;9.114;2023-12-20T14:44:57;1.98;;;0.98;;
11651;SDS011;5882;48.818;9.114;2023-12-20T14:47:43;1.17;;;0.90;;
11651;SDS011;5882;48.818;9.114;2023-12-20T14:50:29;2.50;;;0.93;;
11651;SDS011;5882;48.818;9.114;2023-12-20T14:53:14;1.40;;;0.90;;
11651;SDS011;5882;48.818;9.114;2023-12-20T14:56:04;1.10;;;1.10;;
11651;SDS011;5882;48.818;9.114;2023-12-20T14:58:54;1.58;;;1.45;;
11651;SDS011;5882;48.818;9.114;2023-12-20T15:01:41;3.03;;;0.90;;
11651;SDS011;5882;48.818;9.114;2023-12-20T15:04:27;1.00;;;1.00;;
11651;SDS011;5882;48.818;9.114;2023-12-20T15:07:13;1.65;;;1.25;;
11651;SDS011;5882;48.818;9.114;2023-12-20T15:09:58;3.20;;;1.08;;
11651;SDS011;5882;48.818;9.114;2023-12-20T15:12:43;1.10;;;1.00;;
11651;SDS011;5882;48.818;9.114;2023-12-20T15:15:34;1.42;;;1.00;;
11651;SDS011;5882;48.818;9.114;2023-12-20T15:18:19;1.17;;;0.98;;
11651;SDS011;5882;48.818;9.114;2023-12-20T15:21:11;1.10;;;1.10;;
11651;SDS011;5882;48.818;9.114;2023-12-20T15:23:56;1.80;;;1.13;;
11651;SDS011;5882;48.818;9.114;2023-12-20T15:26:52;1.42;;;1.33;;
11651;SDS011;5882;48.818;9.114;2023-12-20T15:29:37;1.00;;;1.00;;
11651;SDS011;5882;48.818;9.114;2023-12-20T15:32:24;2.35;;;1.33;;
11651;SDS011;5882;48.818;9.114;2023-12-20T15:35:09;1.70;;;1.45;;
11651;SDS011;5882;48.818;9.114;2023-12-20T15:37:59;0.88;;;0.88;;
11651;SDS011;5882;48.818;9.114;2023-12-20T15:40:45;3.58;;;1.10;;
11651;SDS011;5882;48.818;9.114;2023-12-20T15:43:30;0.82;;;0.82;;
11651;SDS011;5882;48.818;9.114;2023-12-20T15:46:15;1.10;;;1.00;;
11651;SDS011;5882;48.818;9.114;2023-12-20T15:49:06;1.58;;;1.25;;
11651;SDS011;5882;48.818;9.114;2023-12-20T15:51:54;2.38;;;1.65;;
11651;SDS011;5882;48.818;9.114;2023-12-20T15:54:41;4.00;;;1.25;;
11651;SDS011;5882;48.818;9.114;2023-12-20T15:57:27;1.15;;;1.08;;
11651;SDS011;5882;48.818;9.114;2023-12-20T16:00:12;1.17;;;1.10;;
11651;SDS011;5882;48.818;9.114;2023-12-20T16:02:57;2.15;;;1.40;;
11651;SDS011;5882;48.818;9.114;2023-12-20T16:05:47;1.10;;;1.00;;
11651;SDS011;5882;48.818;9.114;2023-12-20T16:08:33;1.77;;;1.00;;
11651;SDS011;5882;48.818;9.114;2023-12-20T16:11:18;1.33;;;0.98;;
11651;SDS011;5882;48.818;9.114;2023-12-20T16:14:03;0.95;;;0.95;;
11651;SDS011;5882;48.818;9.114;2023-12-20T16:16:49;2.20;;;1.00;;
11651;SDS011;5882;48.818;9.114;2023-12-20T16:19:34;1.30;;;1.20;;
11651;SDS011;5882;48.818;9.114;2023-12-20T16:22:20;2.03;;;1.83;;
11651;SDS011;5882;48.818;9.114;2023-12-20T16:25:06;1.20;;;1.10;;
11651;SDS011;5882;48.818;9.114;2023-12-20T16:27:52;0.88;;;0.88;;
11651;SDS011;5882;48.818;9.114;2023-12-20T16:30:37;1.17;;;1.08;;
11651;SDS011;5882;48.818;9.114;2023-12-20T16:33:22;1.10;;;1.00;;
11651;SDS011;5882;48.818;9.114;2023-12-20T16:36:08;1.00;;;1.00;;
11651;SDS011;5882;48.818;9.114;2023-12-20T16:38:55;1.33;;;1.13;;
11651;SDS011;5882;48.818;9.114;2023-12-20T16:41:41;1.02;;;1.02;;
11651;SDS011;5882;48.818;9.114;2023-12-20T16:44:27;1.10;;;1.10;;
11651;SDS011;5882;48.818;9.114;2023-12-20T16:47:12;0.90;;;0.90;;
11651;SDS011;5882;48.818;9.114;2023-12-20T16:49:58;1.00;;;1.00;;
11651;SDS011;5882;48.818;9.114;2023-12-20T16:52:44;1.05;;;0.95;;
11651;SDS011;5882;48.818;9.114;2023-12-20T16:55:36;1.10;;;1.10;;
11651;SDS011;5882;48.818;9.114;2023-12-20T16:58:21;1.35;;;1.08;;
11651;SDS011;5882;48.818;9.114;2023-12-20T17:01:06;1.55;;;1.40;;
11651;SDS011;5882;48.818;9.114;2023-12-20T17:03:54;1.60;;;1.40;;
11651;SDS011;5882;48.818;9.114;2023-12-20T17:06:40;2.75;;;1.33;;
11651;SDS011;5882;48.818;9.114;2023-12-20T17:09:25;1.90;;;1.20;;
11651;SDS011;5882;48.818;9.114;2023-12-20T17:12:12;1.92;;;1.10;;
11651;SDS011;5882;48.818;9.114;2023-12-20T17:15:06;2.05;;;1.10;;
11651;SDS011;5882;48.818;9.114;2023-12-20T17:17:51;1.63;;;1.50;;
11651;SDS011;5882;48.818;9.114;2023-12-20T17:20:37;2.38;;;1.20;;
11651;SDS011;5882;48.818;9.114;2023-12-20T17:23:22;1.73;;;1.20;;
11651;SDS011;5882;48.818;9.114;2023-12-20T17:26:07;1.40;;;1.30;;
11651;SDS011;5882;48.818;9.114;2023-12-20T17:28:53;1.70;;;1.30;;
11651;SDS011;5882;48.818;9.114;2023-12-20T17:31:39;2.00;;;1.33;;
11651;SDS011;5882;48.818;9.114;2023-12-20T17:34:28;1.50;;;1.17;;
11651;SDS011;5882;48.818;9.114;2023-12-20T17:37:13;1.23;;;1.13;;
11651;SDS011;5882;48.818;9.114;2023-12-20T17:39:59;0.98;;;0.98;;
11651;SDS011;5882;48.818;9.114;2023-12-20T17:42:44;1.05;;;1.00;;
11651;SDS011;5882;48.818;9.114;2023-12-20T17:45:31;1.30;;;1.20;;
11651;SDS011;5882;48.818;9.114;2023-12-20T17:48:16;1.30;;;1.20;;
11651;SDS011;5882;48.818;9.114;2023-12-20T17:51:02;0.90;;;0.90;;
11651;SDS011;5882;48.818;9.114;2023-12-20T17:53:47;0.80;;;0.80;;
11651;SDS011;5882;48.818;9.114;2023-12-20T17:56:33;2.45;;;1.17;;
11651;SDS011;5882;48.818;9.114;2023-12-20T17:59:19;1.00;;;1.00;;
11651;SDS011;5882;48.818;9.114;2023-12-20T18:02:06;0.90;;;0.90;;
11651;SDS011;5882;48.818;9.114;2023-12-20T18:04:51;0.90;;;0.90;;
11651;SDS011;5882;48.818;9.114;2023-12-20T18:07:37;1.40;;;1.20;;
11651;SDS011;5882;48.818;9.114;2023-12-20T18:10:22;1.35;;;1.10;;
11651;SDS011;5882;48.818;9.114;2023-12-20T18:13:07;0.90;;;0.90;;
11651;SDS011;5882;48.818;9.114;2023-12-20T18:15:53;1.10;;;1.00;;
11651;SDS011;5882;48.818;9.114;2023-12-20T18:18:39;1.02;;;0.80;;
11651;SDS011;5882;48.818;9.114;2023-12-20T18:21:24;1.00;;;1.00;;
11651;SDS011;5882;48.818;9.114;2023-12-20T18:24:10;0.90;;;0.90;;
11651;SDS011;5882;48.818;9.114;2023-12-20T18:26:55;0.80;;;0.80;;
11651;SDS011;5882;48.818;9.114;2023-12-20T18:29:41;2.28;;;0.90;;
11651;SDS011;5882;48.818;9.114;2023-12-20T18:32:26;0.77;;;0.77;;
11651;SDS011;5882;48.818;9.114;2023-12-20T18:35:13;1.13;;;0.80;;
11651;SDS011;5882;48.818;9.114;2023-12-20T18:37:58;1.23;;;1.00;;
11651;SDS011;5882;48.818;9.114;2023-12-20T18:40:44;1.55;;;1.40;;
11651;SDS011;5882;48.818;9.114;2023-12-20T18:43:31;1.10;;;0.98;;
11651;SDS011;5882;48.818;9.114;2023-12-20T18:46:17;0.93;;;0.90;;
11651;SDS011;5882;48.818;9.114;2023-12-20T18:49:03;1.08;;;0.90;;
11651;SDS011;5882;48.818;9.114;2023-12-20T18:51:52;1.00;;;1.00;;
11651;SDS011;5882;48.818;9.114;2023-12-20T18:54:36;0.80;;;0.80;;
11651;SDS011;5882;48.818;9.114;2023-12-20T18:57:22;2.63;;;1.00;;
11651;SDS011;5882;48.818;9.114;2023-12-20T19:00:08;1.10;;;1.00;;
11651;SDS011;5882;48.818;9.114;2023-12-20T19:02:54;0.90;;;0.90;;
11651;SDS011;5882;48.818;9.114;2023-12-20T19:05:40;0.90;;;0.90;;
11651;SDS011;5882;48.818;9.114;2023-12-20T19:08:27;0.95;;;0.95;;
11651;SDS011;5882;48.818;9.114;2023-12-20T19:11:12;0.88;;;0.82;;
11651;SDS011;5882;48.818;9.114;2023-12-20T19:14:00;0.95;;;0.95;;
11651;SDS011;5882;48.818;9.114;2023-12-20T19:16:46;1.33;;;1.10;;
11651;SDS011;5882;48.818;9.114;2023-12-20T19:19:31;0.80;;;0.80;;
11651;SDS011;5882;48.818;9.114;2023-12-20T19:22:17;0.90;;;0.90;;
11651;SDS011;5882;48.818;9.114;2023-12-20T19:25:05;1.20;;;1.10;;
11651;SDS011;5882;48.818;9.114;2023-12-20T19:27:52;1.52;;;1.20;;
11651;SDS011;5882;48.818;9.114;2023-12-20T19:30:37;1.20;;;1.00;;
11651;SDS011;5882;48.818;9.114;2023-12-20T19:33:23;1.55;;;1.02;;
11651;SDS011;5882;48.818;9.114;2023-12-20T19:36:09;2.15;;;1.27;;
11651;SDS011;5882;48.818;9.114;2023-12-20T19:38:54;2.60;;;1.00;;
11651;SDS011;5882;48.818;9.114;2023-12-20T19:41:41;2.85;;;1.13;;
11651;SDS011;5882;48.818;9.114;2023-12-20T19:44:26;2.65;;;1.13;;
11651;SDS011;5882;48.818;9.114;2023-12-20T19:47:11;2.78;;;1.10;;
11651;SDS011;5882;48.818;9.114;2023-12-20T19:49:57;1.30;;;1.20;;
11651;SDS011;5882;48.818;9.114;2023-12-20T19:52:42;1.27;;;1.08;;
11651;SDS011;5882;48.818;9.114;2023-12-20T19:55:27;1.30;;;1.20;;
11651;SDS011;5882;48.818;9.114;2023-12-20T19:58:14;1.63;;;1.10;;
11651;SDS011;5882;48.818;9.114;2023-12-20T20:00:59;1.30;;;1.17;;
11651;SDS011;5882;48.818;9.114;2023-12-20T20:03:45;1.27;;;1.08;;
11651;SDS011;5882;48.818;9.114;2023-12-20T20:06:30;1.38;;;1.20;;
11651;SDS011;5882;48.818;9.114;2023-12-20T20:09:20;1.33;;;0.80;;
11651;SDS011;5882;48.818;9.114;2023-12-20T20:12:06;1.63;;;1.17;;
11651;SDS011;5882;48.818;9.114;2023-12-20T20:14:53;2.00;;;1.40;;
11651;SDS011;5882;48.818;9.114;2023-12-20T20:17:38;1.25;;;1.15;;
11651;SDS011;5882;48.818;9.114;2023-12-20T20:20:24;1.60;;;0.98;;
11651;SDS011;5882;48.818;9.114;2023-12-20T20:23:09;1.75;;;1.17;;
11651;SDS011;5882;48.818;9.114;2023-12-20T20:25:54;1.40;;;1.30;;
11651;SDS011;5882;48.818;9.114;2023-12-20T20:28:39;3.10;;;1.48;;
11651;SDS011;5882;48.818;9.114;2023-12-20T20:31:26;1.00;;;1.00;;
11651;SDS011;5882;48.818;9.114;2023-12-20T20:34:16;1.10;;;1.00;;
11651;SDS011;5882;48.818;9.114;2023-12-20T20:37:03;1.00;;;0.90;;
11651;SDS011;5882;48.818;9.114;2023-12-20T20:39:49;1.00;;;1.00;;
11651;SDS011;5882;48.818;9.114;2023-12-20T20:42:35;1.00;;;1.00;;
11651;SDS011;5882;48.818;9.114;2023-12-20T20:45:20;0.90;;;0.90;;
11651;SDS011;5882;48.818;9.114;2023-12-20T20:48:08;1.17;;;1.08;;
11651;SDS011;5882;48.818;9.114;2023-12-20T20:50:54;0.90;;;0.90;;
11651;SDS011;5882;48.818;9.114;2023-12-20T20:53:42;1.27;;;1.00;;
11651;SDS011;5882;48.818;9.114;2023-12-20T20:56:27;2.58;;;1.20;;